ARG1612 SABE-SAZM
Flight info
| Callsign | ARG1612 |
|---|---|
| Flight time | 1h 2m |
| Altitude | 29000 |
| Route | PTA8 GBE UW29 VOTRA VOTRA1Q |
| Aircraft | B738/M-SDE2E3FGHIRWXY/LB1 |
Departure
| Time | 2026-04-21 19:27 |
|---|---|
| Airport | Aeroparque Jorge Newbery (SABE) |
Arrival
| Time | 2026-04-21 20:29 |
|---|---|
| Airport | Ástor Piazzola International Airport (SAZM) |
| Time | Latitude | Longitude | Altitude | Speed | Heading |
|---|---|---|---|---|---|
| 2026-04-21 18:56 | -34.55822 | -58.41215 | 24 ft | 0 kts | 39° |
| 2026-04-21 19:18 | -34.55827 | -58.41220 | 24 ft | 4 kts | 38° |
| 2026-04-21 19:18 | -34.55849 | -58.41236 | 30 ft | 4 kts | 6° |
| 2026-04-21 19:19 | -34.55864 | -58.41229 | 28 ft | 4 kts | 308° |
| 2026-04-21 19:19 | -34.55880 | -58.41204 | 29 ft | 3 kts | 310° |
| 2026-04-21 19:19 | -34.55883 | -58.41199 | 29 ft | 0 kts | 310° |
| 2026-04-21 19:21 | -34.55883 | -58.41200 | 29 ft | 0 kts | 310° |
| 2026-04-21 19:21 | -34.55872 | -58.41216 | 29 ft | 4 kts | 310° |
| 2026-04-21 19:22 | -34.55859 | -58.41245 | 27 ft | 5 kts | 287° |
| 2026-04-21 19:22 | -34.55876 | -58.41286 | 26 ft | 6 kts | 214° |
| 2026-04-21 19:22 | -34.55906 | -58.41321 | 27 ft | 6 kts | 248° |
| 2026-04-21 19:22 | -34.55887 | -58.41392 | 28 ft | 15 kts | 297° |
| 2026-04-21 19:23 | -34.55833 | -58.41521 | 28 ft | 18 kts | 297° |
| 2026-04-21 19:23 | -34.55776 | -58.41653 | 27 ft | 17 kts | 297° |
| 2026-04-21 19:23 | -34.55722 | -58.41779 | 24 ft | 17 kts | 300° |
| 2026-04-21 19:23 | -34.55658 | -58.41892 | 27 ft | 16 kts | 305° |
| 2026-04-21 19:24 | -34.55600 | -58.42000 | 27 ft | 15 kts | 302° |
| 2026-04-21 19:24 | -34.55539 | -58.42103 | 24 ft | 15 kts | 307° |
| 2026-04-21 19:24 | -34.55479 | -58.42200 | 25 ft | 14 kts | 307° |
| 2026-04-21 19:24 | -34.55422 | -58.42292 | 27 ft | 13 kts | 307° |
| 2026-04-21 19:25 | -34.55373 | -58.42385 | 27 ft | 13 kts | 284° |
| 2026-04-21 19:25 | -34.55370 | -58.42490 | 24 ft | 13 kts | 242° |
| 2026-04-21 19:25 | -34.55417 | -58.42499 | 25 ft | 5 kts | 134° |
| 2026-04-21 19:25 | -34.55430 | -58.42466 | 25 ft | 0 kts | 122° |
| 2026-04-21 19:26 | -34.55552 | -58.42246 | 26 ft | 71 kts | 124° |
| 2026-04-21 19:26 | -34.55972 | -58.41494 | 25 ft | 142 kts | 124° |
| 2026-04-21 19:26 | -34.56602 | -58.40375 | 374 ft | 172 kts | 126° |
| 2026-04-21 19:27 | -34.57291 | -58.39102 | 1061 ft | 187 kts | 123° |
| 2026-04-21 19:27 | -34.57829 | -58.37683 | 1971 ft | 191 kts | 96° |
| 2026-04-21 19:27 | -34.57552 | -58.36017 | 2309 ft | 217 kts | 57° |
| 2026-04-21 19:27 | -34.56492 | -58.34647 | 2683 ft | 230 kts | 31° |
| 2026-04-21 19:28 | -34.55110 | -58.33610 | 3263 ft | 240 kts | 30° |
| 2026-04-21 19:28 | -34.53701 | -58.32337 | 3621 ft | 265 kts | 47° |
| 2026-04-21 19:28 | -34.52815 | -58.30334 | 4408 ft | 276 kts | 74° |
| 2026-04-21 19:28 | -34.52740 | -58.28003 | 5317 ft | 282 kts | 100° |
| 2026-04-21 19:29 | -34.53296 | -58.25691 | 6129 ft | 289 kts | 117° |
| 2026-04-21 19:29 | -34.54488 | -58.23717 | 6914 ft | 293 kts | 137° |
| 2026-04-21 19:29 | -34.56118 | -58.22217 | 7707 ft | 296 kts | 148° |
| 2026-04-21 19:29 | -34.57872 | -58.20854 | 8494 ft | 302 kts | 150° |
| 2026-04-21 19:30 | -34.59683 | -58.19487 | 9281 ft | 308 kts | 150° |
| 2026-04-21 19:30 | -34.61519 | -58.18097 | 10067 ft | 314 kts | 150° |
| 2026-04-21 19:30 | -34.63413 | -58.16653 | 10509 ft | 333 kts | 150° |
| 2026-04-21 19:30 | -34.65447 | -58.15090 | 10693 ft | 358 kts | 149° |
| 2026-04-21 19:31 | -34.67603 | -58.13420 | 11041 ft | 375 kts | 149° |
| 2026-04-21 19:31 | -34.69792 | -58.11711 | 11657 ft | 382 kts | 149° |
| 2026-04-21 19:31 | -34.72041 | -58.09949 | 12383 ft | 387 kts | 149° |
| 2026-04-21 19:31 | -34.74320 | -58.08159 | 13109 ft | 391 kts | 149° |
| 2026-04-21 19:32 | -34.76355 | -58.06560 | 13719 ft | 396 kts | 149° |
| 2026-04-21 19:32 | -34.78689 | -58.04726 | 14329 ft | 401 kts | 149° |
| 2026-04-21 19:32 | -34.81047 | -58.02872 | 14991 ft | 405 kts | 149° |
| 2026-04-21 19:32 | -34.83419 | -58.01005 | 15635 ft | 409 kts | 149° |
| 2026-04-21 19:33 | -34.85010 | -57.99753 | 16075 ft | 412 kts | 149° |
| 2026-04-21 19:33 | -34.88247 | -57.97203 | 16926 ft | 417 kts | 149° |
| 2026-04-21 19:33 | -34.90695 | -57.95273 | 17545 ft | 421 kts | 149° |
| 2026-04-21 19:33 | -34.93182 | -57.93333 | 18150 ft | 425 kts | 152° |
| 2026-04-21 19:34 | -34.95928 | -57.92035 | 18646 ft | 423 kts | 173° |
| 2026-04-21 19:34 | -34.98830 | -57.91898 | 19227 ft | 415 kts | 191° |
| 2026-04-21 19:34 | -35.01603 | -57.92725 | 19792 ft | 407 kts | 208° |
| 2026-04-21 19:34 | -35.04091 | -57.94326 | 20364 ft | 404 kts | 216° |
| 2026-04-21 19:35 | -35.06483 | -57.96070 | 20899 ft | 407 kts | 217° |
| 2026-04-21 19:35 | -35.11346 | -57.99709 | 21953 ft | 413 kts | 217° |
| 2026-04-21 19:35 | -35.13805 | -58.01536 | 22474 ft | 416 kts | 217° |
| 2026-04-21 19:36 | -35.16301 | -58.03376 | 22983 ft | 419 kts | 216° |
| 2026-04-21 19:36 | -35.18809 | -58.05213 | 23479 ft | 422 kts | 216° |
| 2026-04-21 19:36 | -35.21342 | -58.07061 | 23892 ft | 425 kts | 216° |
| 2026-04-21 19:36 | -35.23889 | -58.08916 | 24301 ft | 427 kts | 216° |
| 2026-04-21 19:37 | -35.26453 | -58.10783 | 24705 ft | 430 kts | 216° |
| 2026-04-21 19:37 | -35.29039 | -58.12667 | 25098 ft | 433 kts | 216° |
| 2026-04-21 19:37 | -35.31634 | -58.14559 | 25492 ft | 435 kts | 216° |
| 2026-04-21 19:37 | -35.34241 | -58.16462 | 25884 ft | 437 kts | 216° |
| 2026-04-21 19:38 | -35.36860 | -58.18375 | 26264 ft | 440 kts | 216° |
| 2026-04-21 19:38 | -35.39460 | -58.20275 | 26642 ft | 442 kts | 216° |
| 2026-04-21 19:38 | -35.41247 | -58.21582 | 26950 ft | 441 kts | 216° |
| 2026-04-21 19:38 | -35.44734 | -58.24134 | 27661 ft | 439 kts | 216° |
| 2026-04-21 19:39 | -35.47356 | -58.26053 | 28223 ft | 436 kts | 216° |
| 2026-04-21 19:39 | -35.49964 | -58.27966 | 28747 ft | 435 kts | 216° |
| 2026-04-21 19:39 | -35.52563 | -58.29875 | 28976 ft | 438 kts | 216° |
| 2026-04-21 19:40 | -35.57810 | -58.33733 | 28969 ft | 437 kts | 216° |
| 2026-04-21 19:40 | -35.63001 | -58.37552 | 28989 ft | 434 kts | 216° |
| 2026-04-21 19:41 | -35.68167 | -58.41363 | 28983 ft | 436 kts | 216° |
| 2026-04-21 19:41 | -35.73500 | -58.44978 | 28947 ft | 447 kts | 202° |
| 2026-04-21 19:41 | -35.76595 | -58.45646 | 28982 ft | 457 kts | 185° |
| 2026-04-21 19:42 | -35.79784 | -58.45163 | 28997 ft | 465 kts | 170° |
| 2026-04-21 19:42 | -35.86056 | -58.43099 | 28982 ft | 467 kts | 168° |
| 2026-04-21 19:43 | -35.92278 | -58.40929 | 28972 ft | 467 kts | 168° |
| 2026-04-21 19:43 | -35.98461 | -58.38838 | 28972 ft | 461 kts | 169° |
| 2026-04-21 19:44 | -36.04548 | -58.36824 | 28974 ft | 448 kts | 169° |
| 2026-04-21 19:44 | -36.10567 | -58.34855 | 28712 ft | 452 kts | 169° |
| 2026-04-21 19:44 | -36.13598 | -58.33862 | 28339 ft | 447 kts | 169° |
| 2026-04-21 19:45 | -36.16601 | -58.32874 | 27886 ft | 444 kts | 169° |
| 2026-04-21 19:45 | -36.19573 | -58.31895 | 27453 ft | 440 kts | 170° |
| 2026-04-21 19:45 | -36.22525 | -58.30921 | 27013 ft | 437 kts | 170° |
| 2026-04-21 19:45 | -36.25454 | -58.29954 | 26584 ft | 435 kts | 170° |
| 2026-04-21 19:46 | -36.28372 | -58.28990 | 26148 ft | 432 kts | 170° |
| 2026-04-21 19:46 | -36.31266 | -58.28034 | 25721 ft | 430 kts | 170° |
| 2026-04-21 19:46 | -36.34161 | -58.27077 | 25272 ft | 429 kts | 170° |
| 2026-04-21 19:46 | -36.37053 | -58.26121 | 24772 ft | 429 kts | 170° |
| 2026-04-21 19:47 | -36.39937 | -58.25167 | 24331 ft | 428 kts | 169° |
| 2026-04-21 19:47 | -36.42777 | -58.24226 | 23891 ft | 428 kts | 169° |
| 2026-04-21 19:47 | -36.45644 | -58.23274 | 23424 ft | 427 kts | 169° |
| 2026-04-21 19:47 | -36.48509 | -58.22323 | 22935 ft | 425 kts | 169° |
| 2026-04-21 19:48 | -36.51358 | -58.21376 | 22492 ft | 423 kts | 169° |
| 2026-04-21 19:48 | -36.54188 | -58.20434 | 22036 ft | 420 kts | 169° |
| 2026-04-21 19:48 | -36.57003 | -58.19497 | 21609 ft | 418 kts | 169° |
| 2026-04-21 19:48 | -36.59810 | -58.18562 | 21169 ft | 416 kts | 169° |
| 2026-04-21 19:49 | -36.62598 | -58.17633 | 20739 ft | 413 kts | 169° |
| 2026-04-21 19:49 | -36.65372 | -58.16708 | 20310 ft | 411 kts | 169° |
| 2026-04-21 19:49 | -36.68130 | -58.15787 | 19874 ft | 410 kts | 169° |
| 2026-04-21 19:49 | -36.70875 | -58.14870 | 19447 ft | 408 kts | 169° |
| 2026-04-21 19:50 | -36.72688 | -58.14264 | 19160 ft | 407 kts | 168° |
| 2026-04-21 19:50 | -36.76341 | -58.13043 | 18591 ft | 405 kts | 168° |
| 2026-04-21 19:50 | -36.79058 | -58.12133 | 18147 ft | 404 kts | 168° |
| 2026-04-21 19:50 | -36.81763 | -58.11227 | 17691 ft | 399 kts | 168° |
| 2026-04-21 19:51 | -36.84407 | -58.10338 | 17249 ft | 388 kts | 168° |
| 2026-04-21 19:51 | -36.86983 | -58.09471 | 16846 ft | 377 kts | 168° |
| 2026-04-21 19:51 | -36.89494 | -58.08627 | 16463 ft | 372 kts | 168° |
| 2026-04-21 19:51 | -36.91992 | -58.07790 | 16094 ft | 371 kts | 168° |
| 2026-04-21 19:52 | -36.94458 | -58.06963 | 15709 ft | 371 kts | 168° |
| 2026-04-21 19:52 | -36.96946 | -58.06127 | 15306 ft | 370 kts | 168° |
| 2026-04-21 19:52 | -36.99425 | -58.05293 | 14929 ft | 368 kts | 168° |
| 2026-04-21 19:52 | -37.01891 | -58.04462 | 14544 ft | 367 kts | 168° |
| 2026-04-21 19:53 | -37.04352 | -58.03633 | 14150 ft | 366 kts | 167° |
| 2026-04-21 19:53 | -37.06812 | -58.02816 | 13747 ft | 364 kts | 169° |
| 2026-04-21 19:53 | -37.09287 | -58.02163 | 13316 ft | 362 kts | 172° |
| 2026-04-21 19:53 | -37.11762 | -58.01616 | 12887 ft | 360 kts | 173° |
| 2026-04-21 19:54 | -37.13395 | -58.01273 | 12607 ft | 359 kts | 173° |
| 2026-04-21 19:54 | -37.15844 | -58.00760 | 12200 ft | 351 kts | 173° |
| 2026-04-21 19:54 | -37.18227 | -58.00252 | 11797 ft | 344 kts | 172° |
| 2026-04-21 19:54 | -37.20590 | -57.99741 | 11408 ft | 344 kts | 172° |
| 2026-04-21 19:55 | -37.22939 | -57.99226 | 11026 ft | 343 kts | 172° |
| 2026-04-21 19:55 | -37.25294 | -57.98705 | 10624 ft | 342 kts | 172° |
| 2026-04-21 19:55 | -37.27616 | -57.98186 | 10225 ft | 335 kts | 172° |
| 2026-04-21 19:55 | -37.29862 | -57.97683 | 9799 ft | 328 kts | 171° |
| 2026-04-21 19:56 | -37.32102 | -57.97179 | 9541 ft | 317 kts | 171° |
| 2026-04-21 19:56 | -37.34214 | -57.96704 | 9231 ft | 308 kts | 171° |
| 2026-04-21 19:56 | -37.36286 | -57.96237 | 8968 ft | 297 kts | 171° |
| 2026-04-21 19:56 | -37.38308 | -57.95782 | 8719 ft | 294 kts | 171° |
| 2026-04-21 19:57 | -37.40321 | -57.95329 | 8471 ft | 292 kts | 171° |
| 2026-04-21 19:57 | -37.42314 | -57.94881 | 8220 ft | 290 kts | 171° |
| 2026-04-21 19:57 | -37.44299 | -57.94434 | 7975 ft | 289 kts | 170° |
| 2026-04-21 19:57 | -37.46265 | -57.93990 | 7728 ft | 287 kts | 170° |
| 2026-04-21 19:58 | -37.48235 | -57.93545 | 7486 ft | 286 kts | 170° |
| 2026-04-21 19:58 | -37.50187 | -57.93105 | 7246 ft | 284 kts | 170° |
| 2026-04-21 19:58 | -37.52128 | -57.92666 | 7007 ft | 283 kts | 169° |
| 2026-04-21 19:58 | -37.54070 | -57.92226 | 6788 ft | 283 kts | 169° |
| 2026-04-21 19:59 | -37.55988 | -57.91792 | 6552 ft | 284 kts | 169° |
| 2026-04-21 19:59 | -37.57942 | -57.91350 | 6311 ft | 285 kts | 169° |
| 2026-04-21 19:59 | -37.59899 | -57.90906 | 6060 ft | 285 kts | 168° |
| 2026-04-21 19:59 | -37.61863 | -57.90461 | 5793 ft | 286 kts | 168° |
| 2026-04-21 20:00 | -37.63814 | -57.90019 | 5550 ft | 284 kts | 168° |
| 2026-04-21 20:00 | -37.65758 | -57.89578 | 5292 ft | 283 kts | 167° |
| 2026-04-21 20:00 | -37.67680 | -57.89141 | 5053 ft | 281 kts | 167° |
| 2026-04-21 20:00 | -37.69594 | -57.88706 | 4816 ft | 280 kts | 167° |
| 2026-04-21 20:01 | -37.71516 | -57.88268 | 4573 ft | 281 kts | 167° |
| 2026-04-21 20:01 | -37.73429 | -57.87834 | 4308 ft | 276 kts | 166° |
| 2026-04-21 20:01 | -37.75278 | -57.87417 | 4175 ft | 262 kts | 166° |
| 2026-04-21 20:01 | -37.77013 | -57.87023 | 4046 ft | 243 kts | 164° |
| 2026-04-21 20:02 | -37.78458 | -57.86206 | 3911 ft | 215 kts | 133° |
| 2026-04-21 20:02 | -37.79401 | -57.84889 | 3826 ft | 191 kts | 116° |
| 2026-04-21 20:02 | -37.80100 | -57.83537 | 3839 ft | 180 kts | 114° |
| 2026-04-21 20:02 | -37.80766 | -57.82207 | 3839 ft | 177 kts | 114° |
| 2026-04-21 20:03 | -37.81428 | -57.80906 | 3840 ft | 175 kts | 115° |
| 2026-04-21 20:03 | -37.82083 | -57.79632 | 3715 ft | 178 kts | 116° |
| 2026-04-21 20:03 | -37.82771 | -57.78352 | 3517 ft | 171 kts | 116° |
| 2026-04-21 20:03 | -37.83409 | -57.77126 | 3504 ft | 167 kts | 115° |
| 2026-04-21 20:04 | -37.84059 | -57.75844 | 3290 ft | 171 kts | 114° |
| 2026-04-21 20:04 | -37.84679 | -57.74625 | 3086 ft | 157 kts | 114° |
| 2026-04-21 20:04 | -37.85249 | -57.73497 | 2872 ft | 149 kts | 114° |
| 2026-04-21 20:04 | -37.85802 | -57.72396 | 2677 ft | 148 kts | 114° |
| 2026-04-21 20:05 | -37.86357 | -57.71299 | 2494 ft | 148 kts | 114° |
| 2026-04-21 20:05 | -37.86898 | -57.70224 | 2304 ft | 144 kts | 115° |
| 2026-04-21 20:05 | -37.87430 | -57.69171 | 2107 ft | 139 kts | 115° |
| 2026-04-21 20:05 | -37.87942 | -57.68157 | 1916 ft | 134 kts | 114° |
| 2026-04-21 20:06 | -37.88445 | -57.67157 | 1746 ft | 135 kts | 115° |
| 2026-04-21 20:06 | -37.88958 | -57.66142 | 1543 ft | 140 kts | 116° |
| 2026-04-21 20:06 | -37.89490 | -57.65087 | 1361 ft | 144 kts | 116° |
| 2026-04-21 20:06 | -37.90022 | -57.64036 | 1167 ft | 139 kts | 117° |
| 2026-04-21 20:07 | -37.90538 | -57.63016 | 972 ft | 137 kts | 119° |
| 2026-04-21 20:07 | -37.91054 | -57.61995 | 788 ft | 142 kts | 118° |
| 2026-04-21 20:07 | -37.91589 | -57.60937 | 562 ft | 144 kts | 121° |
| 2026-04-21 20:07 | -37.92135 | -57.59872 | 369 ft | 144 kts | 122° |
| 2026-04-21 20:08 | -37.92671 | -57.58810 | 197 ft | 142 kts | 118° |
| 2026-04-21 20:08 | -37.93193 | -57.57776 | 68 ft | 130 kts | 120° |
| 2026-04-21 20:08 | -37.93711 | -57.56741 | 650 ft | 142 kts | 119° |
| 2026-04-21 20:08 | -37.94241 | -57.55680 | 1668 ft | 148 kts | 115° |
| 2026-04-21 20:09 | -37.94786 | -57.54550 | 2554 ft | 157 kts | 111° |
| 2026-04-21 20:09 | -37.95439 | -57.53210 | 2930 ft | 193 kts | 115° |
| 2026-04-21 20:09 | -37.96197 | -57.51745 | 2948 ft | 204 kts | 117° |
| 2026-04-21 20:09 | -37.97017 | -57.50234 | 2952 ft | 212 kts | 122° |
| 2026-04-21 20:10 | -37.97939 | -57.48754 | 2942 ft | 215 kts | 119° |
| 2026-04-21 20:10 | -37.98364 | -57.47061 | 2966 ft | 197 kts | 87° |
| 2026-04-21 20:10 | -37.98361 | -57.45339 | 2949 ft | 200 kts | 87° |
| 2026-04-21 20:10 | -37.98385 | -57.43557 | 2958 ft | 199 kts | 87° |
| 2026-04-21 20:11 | -37.98424 | -57.41831 | 2962 ft | 198 kts | 88° |
| 2026-04-21 20:11 | -37.98474 | -57.40093 | 2974 ft | 197 kts | 88° |
| 2026-04-21 20:11 | -37.98530 | -57.38362 | 2968 ft | 197 kts | 88° |
| 2026-04-21 20:11 | -37.98593 | -57.36625 | 2970 ft | 197 kts | 88° |
| 2026-04-21 20:12 | -37.98659 | -57.34896 | 2974 ft | 197 kts | 88° |
| 2026-04-21 20:12 | -37.98729 | -57.33164 | 2980 ft | 198 kts | 88° |
| 2026-04-21 20:12 | -37.98801 | -57.31417 | 2984 ft | 199 kts | 88° |
| 2026-04-21 20:12 | -37.98875 | -57.29661 | 2966 ft | 199 kts | 88° |
| 2026-04-21 20:13 | -37.98950 | -57.27912 | 2965 ft | 198 kts | 89° |
| 2026-04-21 20:13 | -37.99024 | -57.26166 | 2961 ft | 198 kts | 89° |
| 2026-04-21 20:13 | -37.99098 | -57.24426 | 2973 ft | 198 kts | 88° |
| 2026-04-21 20:13 | -37.98840 | -57.22754 | 2977 ft | 192 kts | 62° |
| 2026-04-21 20:14 | -37.98257 | -57.21210 | 2974 ft | 195 kts | 63° |
| 2026-04-21 20:14 | -37.97707 | -57.19653 | 2974 ft | 197 kts | 64° |
| 2026-04-21 20:14 | -37.97150 | -57.18057 | 2969 ft | 198 kts | 64° |
| 2026-04-21 20:14 | -37.96593 | -57.16459 | 2968 ft | 198 kts | 64° |
| 2026-04-21 20:15 | -37.96037 | -57.14861 | 2974 ft | 198 kts | 64° |
| 2026-04-21 20:15 | -37.95479 | -57.13260 | 2982 ft | 199 kts | 64° |
| 2026-04-21 20:15 | -37.95228 | -57.11536 | 2967 ft | 204 kts | 89° |
| 2026-04-21 20:15 | -37.95610 | -57.09776 | 2970 ft | 213 kts | 112° |
| 2026-04-21 20:16 | -37.96616 | -57.08351 | 2972 ft | 225 kts | 140° |
| 2026-04-21 20:16 | -37.98118 | -57.07671 | 2965 ft | 237 kts | 171° |
| 2026-04-21 20:16 | -37.99746 | -57.08059 | 2963 ft | 244 kts | 206° |
| 2026-04-21 20:16 | -38.00975 | -57.09495 | 2978 ft | 242 kts | 243° |
| 2026-04-21 20:17 | -38.01390 | -57.11498 | 2982 ft | 233 kts | 276° |
| 2026-04-21 20:17 | -38.01163 | -57.13496 | 2986 ft | 229 kts | 289° |
| 2026-04-21 20:17 | -38.00699 | -57.15439 | 2974 ft | 235 kts | 301° |
| 2026-04-21 20:17 | -37.99881 | -57.17354 | 3009 ft | 263 kts | 306° |
| 2026-04-21 20:18 | -37.99238 | -57.18720 | 2976 ft | 267 kts | 306° |
| 2026-04-21 20:18 | -37.97960 | -57.21405 | 2983 ft | 268 kts | 306° |
| 2026-04-21 20:18 | -37.97000 | -57.23444 | 2969 ft | 268 kts | 306° |
| 2026-04-21 20:18 | -37.96051 | -57.25478 | 2961 ft | 269 kts | 306° |
| 2026-04-21 20:19 | -37.95105 | -57.27523 | 2962 ft | 268 kts | 306° |
| 2026-04-21 20:19 | -37.94163 | -57.29568 | 2955 ft | 268 kts | 305° |
| 2026-04-21 20:19 | -37.93239 | -57.31581 | 2959 ft | 267 kts | 305° |
| 2026-04-21 20:19 | -37.92305 | -57.33620 | 2966 ft | 268 kts | 305° |
| 2026-04-21 20:20 | -37.91367 | -57.35669 | 2977 ft | 269 kts | 305° |
| 2026-04-21 20:20 | -37.90426 | -57.37723 | 2981 ft | 271 kts | 305° |
| 2026-04-21 20:20 | -37.89480 | -57.39792 | 2974 ft | 272 kts | 305° |
| 2026-04-21 20:20 | -37.88533 | -57.41865 | 2968 ft | 272 kts | 305° |
| 2026-04-21 20:21 | -37.87582 | -57.43943 | 2989 ft | 272 kts | 304° |
| 2026-04-21 20:21 | -37.86625 | -57.46033 | 2980 ft | 277 kts | 304° |
| 2026-04-21 20:21 | -37.85651 | -57.48160 | 2964 ft | 279 kts | 305° |
| 2026-04-21 20:21 | -37.84705 | -57.50227 | 2950 ft | 271 kts | 305° |
| 2026-04-21 20:22 | -37.83772 | -57.52269 | 2956 ft | 265 kts | 305° |
| 2026-04-21 20:22 | -37.81922 | -57.56298 | 2953 ft | 265 kts | 305° |
| 2026-04-21 20:22 | -37.80996 | -57.58313 | 2961 ft | 266 kts | 305° |
| 2026-04-21 20:23 | -37.80063 | -57.60346 | 2967 ft | 268 kts | 306° |
| 2026-04-21 20:23 | -37.79120 | -57.62395 | 2973 ft | 268 kts | 306° |
| 2026-04-21 20:23 | -37.78182 | -57.64435 | 2977 ft | 268 kts | 305° |
| 2026-04-21 20:23 | -37.77244 | -57.66471 | 2976 ft | 269 kts | 304° |
| 2026-04-21 20:24 | -37.76376 | -57.68547 | 2957 ft | 275 kts | 292° |
| 2026-04-21 20:24 | -37.76225 | -57.70971 | 2963 ft | 282 kts | 261° |
| 2026-04-21 20:24 | -37.77029 | -57.73196 | 2932 ft | 279 kts | 229° |
| 2026-04-21 20:24 | -37.78562 | -57.74570 | 2825 ft | 268 kts | 198° |
| 2026-04-21 20:25 | -37.80339 | -57.75186 | 2665 ft | 263 kts | 189° |
| 2026-04-21 20:25 | -37.82114 | -57.75671 | 2502 ft | 259 kts | 188° |
| 2026-04-21 20:25 | -37.83866 | -57.75720 | 2320 ft | 246 kts | 156° |
| 2026-04-21 20:25 | -37.85166 | -57.74502 | 2269 ft | 228 kts | 116° |
| 2026-04-21 20:26 | -37.85889 | -57.72773 | 2276 ft | 225 kts | 113° |
| 2026-04-21 20:26 | -37.86653 | -57.71048 | 2285 ft | 226 kts | 115° |
| 2026-04-21 20:26 | -37.87439 | -57.69321 | 2104 ft | 229 kts | 113° |
| 2026-04-21 20:26 | -37.88242 | -57.67551 | 1789 ft | 233 kts | 117° |
| 2026-04-21 20:27 | -37.89102 | -57.65854 | 1472 ft | 218 kts | 118° |
| 2026-04-21 20:27 | -37.89883 | -57.64315 | 1184 ft | 198 kts | 118° |
| 2026-04-21 20:27 | -37.90588 | -57.62920 | 933 ft | 179 kts | 119° |
| 2026-04-21 20:27 | -37.91231 | -57.61648 | 692 ft | 164 kts | 118° |
| 2026-04-21 20:28 | -37.91823 | -57.60478 | 513 ft | 148 kts | 120° |
| 2026-04-21 20:28 | -37.92353 | -57.59428 | 297 ft | 136 kts | 119° |
| 2026-04-21 20:28 | -37.92855 | -57.58441 | 100 ft | 131 kts | 120° |
| 2026-04-21 20:28 | -37.93315 | -57.57539 | 50 ft | 112 kts | 121° |
| 2026-04-21 20:29 | -37.93690 | -57.56792 | 53 ft | 89 kts | 122° |
| 2026-04-21 20:29 | -37.93904 | -57.56373 | 52 ft | 22 kts | 126° |
| 2026-04-21 20:29 | -37.93997 | -57.56366 | 52 ft | 10 kts | 237° |
| 2026-04-21 20:29 | -37.94029 | -57.56444 | 52 ft | 10 kts | 246° |
| 2026-04-21 20:30 | -37.94023 | -57.56527 | 52 ft | 10 kts | 299° |
| 2026-04-21 20:30 | -37.93991 | -57.56600 | 53 ft | 9 kts | 299° |
| 2026-04-21 20:30 | -37.93959 | -57.56671 | 49 ft | 9 kts | 299° |
| 2026-04-21 20:30 | -37.93929 | -57.56741 | 49 ft | 9 kts | 299° |
| 2026-04-21 20:31 | -37.93898 | -57.56811 | 50 ft | 9 kts | 299° |
| 2026-04-21 20:31 | -37.93868 | -57.56880 | 50 ft | 9 kts | 299° |
| 2026-04-21 20:31 | -37.93838 | -57.56947 | 50 ft | 9 kts | 299° |
| 2026-04-21 20:31 | -37.93810 | -57.57011 | 50 ft | 8 kts | 299° |
| 2026-04-21 20:32 | -37.93782 | -57.57075 | 51 ft | 8 kts | 300° |
| 2026-04-21 20:32 | -37.93749 | -57.57147 | 53 ft | 11 kts | 300° |
| 2026-04-21 20:32 | -37.93701 | -57.57254 | 53 ft | 16 kts | 300° |
| 2026-04-21 20:32 | -37.93642 | -57.57387 | 49 ft | 17 kts | 300° |
| 2026-04-21 20:33 | -37.93584 | -57.57516 | 52 ft | 16 kts | 300° |
| 2026-04-21 20:33 | -37.93529 | -57.57639 | 53 ft | 16 kts | 299° |
| 2026-04-21 20:33 | -37.93477 | -57.57760 | 51 ft | 15 kts | 298° |
| 2026-04-21 20:33 | -37.93428 | -57.57874 | 53 ft | 15 kts | 298° |
| 2026-04-21 20:34 | -37.93390 | -57.57957 | 53 ft | 5 kts | 300° |
| 2026-04-21 20:34 | -37.93373 | -57.57995 | 52 ft | 5 kts | 300° |
| 2026-04-21 20:34 | -37.93363 | -57.58033 | 53 ft | 3 kts | 279° |
| 2026-04-21 20:34 | -37.93356 | -57.58053 | 53 ft | 2 kts | 313° |
| 2026-04-21 20:35 | -37.93343 | -57.58063 | 52 ft | 2 kts | 327° |
| 2026-04-21 20:35 | -37.93333 | -57.58070 | 53 ft | 2 kts | 332° |